Flight Track Log - Related Links

Times and Time Zones

All times are in EDT time to prevent confusion due to time zone crossing. See the N924AK flight status page for this flight to view local times or setup timezone preferences in your user account.

Time Position Orientation Groundspeed Altitude Reporting Facility
EDT Latitude Longitude Course Direction KTS MPH feet Rate Location/Type
Sat 05:37:22 PM 29.1814 -82.2267 354° North 138 159 700  Level Jacksonville Center
Sat 05:37:46 PM 29.2000 -82.2289 354° North 167 192 1,800 1,605 Climbing Jacksonville Center
Sat 05:38:48 PM 29.1983 -82.2883 268° West 240 276 3,000 1,475 Climbing Jacksonville Center
Sat 05:39:48 PM 29.1378 -82.2769 171° South 237 273 4,800 2,033 Climbing Jacksonville Center
Sat 05:40:49 PM 29.0769 -82.2272 144° Southeast 250 288 7,100 1,073 Climbing Jacksonville Center
Sat 05:41:51 PM 29.0058 -82.1994 161° South 276 318 7,000 -49 Descending Jacksonville Center
Sat 05:42:51 PM 28.9328 -82.1881 172° South 274 315 7,000 238 Level Jacksonville Center
Sat 05:45:13 PM 28.7500 -82.1500 170° South 277 319 7,800 594 Climbing Tampa TRACON
Sat 05:46:13 PM 28.6833 -82.1333 168° South 278 320 9,000 632 Climbing Tampa TRACON
Sat 05:47:07 PM 28.6000 -82.1167 170° South 296 341 9,000  Level Tampa TRACON
Sat 05:48:08 PM 28.5167 -82.1167 180° South 293 337 9,000  Level Tampa TRACON
Sat 05:49:08 PM 28.4333 -82.1000 170° South 290 334 9,000 50 Level Tampa TRACON
Sat 05:50:08 PM 28.3667 -82.0833 168° South 286 329 9,100  Climbing Tampa TRACON
Sat 05:51:08 PM 28.2833 -82.0667 170° South 298 343 9,000 -48 Descending Tampa TRACON
Sat 05:52:14 PM 28.2000 -82.0500 170° South 291 335 9,000 48 Level Tampa TRACON
Sat 05:53:14 PM 28.1167 -82.0333 170° South 290 334 9,100  Climbing Tampa TRACON
Sat 05:54:08 PM 28.0333 -82.0333 180° South 303 349 9,000 -53 Descending Tampa TRACON
Sat 05:55:08 PM 27.9667 -82.0667 204° Southwest 295 339 9,000  Level Tampa TRACON
Sat 05:56:08 PM 27.9000 -82.1167 214° Southwest 290 334 9,000 -645 Level Tampa TRACON
Sat 05:57:09 PM 27.8333 -82.1833 221° Southwest 284 327 7,700 -1,339 Descending Tampa TRACON
Sat 05:58:09 PM 27.7667 -82.2167 204° Southwest 266 306 6,300 -857 Descending Tampa TRACON
Sat 05:59:08 PM 27.7000 -82.2500 204° Southwest 267 307 6,000 -807 Descending Tampa TRACON
Sat 06:00:08 PM 27.6500 -82.2833 211° Southwest 260 299 4,700 -1,357 Descending Tampa TRACON
Sat 06:01:03 PM 27.5833 -82.3167 204° Southwest 259 298 3,400 -1,190 Descending Tampa TRACON
Sat 06:02:14 PM 27.5167 -82.3667 214° Southwest 242 278 2,200 -619 Descending Tampa TRACON
Sat 06:03:09 PM 27.4500 -82.4000 204° Southwest 244 281 2,100 -52 Descending Tampa TRACON
Sat 06:04:09 PM 27.4000 -82.4333 211° Southwest 217 250 2,100 -143 Level Tampa TRACON
Sat 06:05:15 PM 27.3667 -82.4833 233° Southwest 163 188 1,800 -650 Descending Tampa TRACON
Sat 06:06:09 PM 27.3667 -82.5167 270° West 135 155 800 -1,111 Descending Tampa TRACON
Sat 06:08:00 PM 27.3833 -82.5500 180° South  Level FlightAware Approximate
Sat 06:15:00 PM 27.3954 -82.5544 180° South  Level Estimated
Sat 06:16:00 PM 27.3954 -82.5544 180° South  Level Estimated

Login

Don't have an account? Register now (free) for customized features, flight alerts, and more!